sensor_id;sensor_type;location;lat;lon;timestamp;P1;durP1;ratioP1;P2;durP2;ratioP2
6424;SDS011;12193;42.642;23.384;2023-03-31T00:01:58;10.00;;;3.30;;
6424;SDS011;12193;42.642;23.384;2023-03-31T00:04:28;8.00;;;3.43;;
6424;SDS011;12193;42.642;23.384;2023-03-31T03:08:37;12.00;;;5.67;;
6424;SDS011;12193;42.642;23.384;2023-03-31T03:11:21;10.10;;;5.23;;
6424;SDS011;12193;42.642;23.384;2023-03-31T03:13:58;8.40;;;4.53;;
6424;SDS011;12193;42.642;23.384;2023-03-31T03:16:35;8.90;;;4.13;;
6424;SDS011;12193;42.642;23.384;2023-03-31T03:19:08;7.23;;;3.70;;
6424;SDS011;12193;42.642;23.384;2023-03-31T03:21:45;9.50;;;4.13;;
6424;SDS011;12193;42.642;23.384;2023-03-31T03:24:17;12.07;;;3.77;;
6424;SDS011;12193;42.642;23.384;2023-03-31T03:26:48;6.87;;;3.50;;
6424;SDS011;12193;42.642;23.384;2023-03-31T03:29:17;9.90;;;4.13;;
6424;SDS011;12193;42.642;23.384;2023-03-31T03:31:46;11.87;;;4.80;;
6424;SDS011;12193;42.642;23.384;2023-03-31T03:34:16;9.10;;;4.70;;
6424;SDS011;12193;42.642;23.384;2023-03-31T03:36:45;8.97;;;4.93;;
6424;SDS011;12193;42.642;23.384;2023-03-31T03:39:17;7.43;;;4.30;;
6424;SDS011;12193;42.642;23.384;2023-03-31T03:41:47;10.37;;;5.23;;
6424;SDS011;12193;42.642;23.384;2023-03-31T03:44:16;11.77;;;4.97;;
6424;SDS011;12193;42.642;23.384;2023-03-31T03:46:45;9.33;;;4.60;;
6424;SDS011;12193;42.642;23.384;2023-03-31T03:49:15;9.03;;;4.90;;
6424;SDS011;12193;42.642;23.384;2023-03-31T03:51:45;6.80;;;4.87;;
6424;SDS011;12193;42.642;23.384;2023-03-31T03:54:17;15.67;;;6.07;;
6424;SDS011;12193;42.642;23.384;2023-03-31T03:56:46;11.17;;;6.33;;
6424;SDS011;12193;42.642;23.384;2023-03-31T03:59:15;10.97;;;4.37;;
6424;SDS011;12193;42.642;23.384;2023-03-31T04:01:45;7.50;;;4.13;;
6424;SDS011;12193;42.642;23.384;2023-03-31T04:04:14;9.43;;;4.60;;
6424;SDS011;12193;42.642;23.384;2023-03-31T04:06:44;10.43;;;4.20;;
6424;SDS011;12193;42.642;23.384;2023-03-31T04:09:13;6.57;;;3.37;;
6424;SDS011;12193;42.642;23.384;2023-03-31T04:11:45;6.90;;;3.20;;
6424;SDS011;12193;42.642;23.384;2023-03-31T04:14:15;10.53;;;3.80;;
6424;SDS011;12193;42.642;23.384;2023-03-31T04:16:44;7.53;;;4.20;;
6424;SDS011;12193;42.642;23.384;2023-03-31T04:19:14;7.63;;;3.20;;
6424;SDS011;12193;42.642;23.384;2023-03-31T04:21:46;8.97;;;4.00;;
6424;SDS011;12193;42.642;23.384;2023-03-31T04:24:23;9.90;;;4.50;;
6424;SDS011;12193;42.642;23.384;2023-03-31T04:27:00;9.60;;;4.70;;
6424;SDS011;12193;42.642;23.384;2023-03-31T04:29:32;9.80;;;5.13;;
6424;SDS011;12193;42.642;23.384;2023-03-31T04:32:02;10.20;;;5.60;;
6424;SDS011;12193;42.642;23.384;2023-03-31T04:34:31;9.70;;;4.93;;
6424;SDS011;12193;42.642;23.384;2023-03-31T04:37:04;11.13;;;5.00;;
6424;SDS011;12193;42.642;23.384;2023-03-31T04:39:35;10.27;;;4.90;;
6424;SDS011;12193;42.642;23.384;2023-03-31T04:42:07;8.90;;;3.97;;
6424;SDS011;12193;42.642;23.384;2023-03-31T04:44:36;8.17;;;5.07;;
6424;SDS011;12193;42.642;23.384;2023-03-31T04:47:06;8.47;;;4.27;;
6424;SDS011;12193;42.642;23.384;2023-03-31T04:49:35;7.90;;;4.03;;
6424;SDS011;12193;42.642;23.384;2023-03-31T04:52:04;8.13;;;4.40;;
6424;SDS011;12193;42.642;23.384;2023-03-31T04:54:34;9.83;;;4.60;;
6424;SDS011;12193;42.642;23.384;2023-03-31T04:57:03;8.97;;;4.70;;
6424;SDS011;12193;42.642;23.384;2023-03-31T04:59:35;9.17;;;4.50;;
6424;SDS011;12193;42.642;23.384;2023-03-31T05:02:04;7.40;;;4.30;;
6424;SDS011;12193;42.642;23.384;2023-03-31T05:04:34;7.37;;;4.23;;
6424;SDS011;12193;42.642;23.384;2023-03-31T05:07:03;10.00;;;5.07;;
6424;SDS011;12193;42.642;23.384;2023-03-31T05:09:33;9.53;;;4.90;;
6424;SDS011;12193;42.642;23.384;2023-03-31T05:12:02;7.17;;;4.13;;
6424;SDS011;12193;42.642;23.384;2023-03-31T05:14:31;8.70;;;5.63;;
6424;SDS011;12193;42.642;23.384;2023-03-31T05:17:04;10.03;;;5.17;;
6424;SDS011;12193;42.642;23.384;2023-03-31T05:19:33;12.10;;;5.10;;
6424;SDS011;12193;42.642;23.384;2023-03-31T05:22:02;10.43;;;5.33;;
6424;SDS011;12193;42.642;23.384;2023-03-31T05:24:32;9.30;;;5.30;;
6424;SDS011;12193;42.642;23.384;2023-03-31T05:27:01;12.07;;;5.27;;
6424;SDS011;12193;42.642;23.384;2023-03-31T05:29:31;13.83;;;5.97;;
6424;SDS011;12193;42.642;23.384;2023-03-31T05:32:03;8.73;;;5.60;;
6424;SDS011;12193;42.642;23.384;2023-03-31T05:34:33;12.90;;;6.17;;
6424;SDS011;12193;42.642;23.384;2023-03-31T05:37:02;13.23;;;6.47;;
6424;SDS011;12193;42.642;23.384;2023-03-31T05:39:32;9.37;;;5.77;;
6424;SDS011;12193;42.642;23.384;2023-03-31T05:42:01;13.37;;;6.80;;
6424;SDS011;12193;42.642;23.384;2023-03-31T05:44:32;12.53;;;6.37;;
6424;SDS011;12193;42.642;23.384;2023-03-31T05:47:04;12.87;;;6.93;;
6424;SDS011;12193;42.642;23.384;2023-03-31T05:49:33;15.87;;;7.10;;
6424;SDS011;12193;42.642;23.384;2023-03-31T05:52:03;14.13;;;6.87;;
6424;SDS011;12193;42.642;23.384;2023-03-31T05:54:32;12.10;;;6.60;;
6424;SDS011;12193;42.642;23.384;2023-03-31T05:57:01;11.70;;;6.40;;
6424;SDS011;12193;42.642;23.384;2023-03-31T05:59:31;15.13;;;7.30;;
6424;SDS011;12193;42.642;23.384;2023-03-31T06:02:01;14.83;;;7.07;;
6424;SDS011;12193;42.642;23.384;2023-03-31T06:04:33;10.90;;;6.53;;
6424;SDS011;12193;42.642;23.384;2023-03-31T06:07:02;13.60;;;7.27;;
6424;SDS011;12193;42.642;23.384;2023-03-31T06:09:33;15.50;;;8.10;;
6424;SDS011;12193;42.642;23.384;2023-03-31T06:12:02;11.90;;;7.10;;
6424;SDS011;12193;42.642;23.384;2023-03-31T06:14:33;16.33;;;7.80;;
6424;SDS011;12193;42.642;23.384;2023-03-31T06:17:05;13.50;;;7.40;;
6424;SDS011;12193;42.642;23.384;2023-03-31T06:19:34;12.57;;;6.20;;
6424;SDS011;12193;42.642;23.384;2023-03-31T06:22:04;10.40;;;5.83;;
6424;SDS011;12193;42.642;23.384;2023-03-31T06:24:34;11.57;;;6.40;;
6424;SDS011;12193;42.642;23.384;2023-03-31T06:27:03;15.70;;;6.87;;
6424;SDS011;12193;42.642;23.384;2023-03-31T06:29:34;11.53;;;6.80;;
6424;SDS011;12193;42.642;23.384;2023-03-31T06:32:06;16.20;;;7.50;;
6424;SDS011;12193;42.642;23.384;2023-03-31T06:34:36;14.97;;;7.10;;
6424;SDS011;12193;42.642;23.384;2023-03-31T06:37:05;10.93;;;5.93;;
6424;SDS011;12193;42.642;23.384;2023-03-31T06:39:34;10.47;;;5.97;;
6424;SDS011;12193;42.642;23.384;2023-03-31T06:42:04;13.70;;;6.90;;
6424;SDS011;12193;42.642;23.384;2023-03-31T06:44:33;14.63;;;6.50;;
6424;SDS011;12193;42.642;23.384;2023-03-31T06:47:02;11.17;;;6.50;;
6424;SDS011;12193;42.642;23.384;2023-03-31T06:49:35;13.37;;;6.07;;
6424;SDS011;12193;42.642;23.384;2023-03-31T06:52:04;13.23;;;5.73;;
6424;SDS011;12193;42.642;23.384;2023-03-31T06:54:33;10.47;;;4.93;;
6424;SDS011;12193;42.642;23.384;2023-03-31T06:57:03;11.43;;;5.77;;
6424;SDS011;12193;42.642;23.384;2023-03-31T06:59:32;12.30;;;5.43;;
6424;SDS011;12193;42.642;23.384;2023-03-31T07:02:01;18.20;;;5.97;;
6424;SDS011;12193;42.642;23.384;2023-03-31T07:04:33;10.57;;;5.63;;
6424;SDS011;12193;42.642;23.384;2023-03-31T07:07:03;9.60;;;5.43;;
6424;SDS011;12193;42.642;23.384;2023-03-31T07:09:32;9.97;;;5.50;;
6424;SDS011;12193;42.642;23.384;2023-03-31T07:12:01;8.50;;;5.37;;
6424;SDS011;12193;42.642;23.384;2023-03-31T07:14:31;11.00;;;5.80;;
6424;SDS011;12193;42.642;23.384;2023-03-31T07:17:02;11.57;;;5.73;;
6424;SDS011;12193;42.642;23.384;2023-03-31T07:19:34;12.27;;;6.07;;
6424;SDS011;12193;42.642;23.384;2023-03-31T07:22:06;11.63;;;5.80;;
6424;SDS011;12193;42.642;23.384;2023-03-31T07:24:36;12.63;;;6.17;;
6424;SDS011;12193;42.642;23.384;2023-03-31T07:27:05;10.27;;;6.17;;
6424;SDS011;12193;42.642;23.384;2023-03-31T07:29:35;11.27;;;6.10;;
6424;SDS011;12193;42.642;23.384;2023-03-31T07:32:04;13.97;;;6.50;;
6424;SDS011;12193;42.642;23.384;2023-03-31T07:34:36;14.87;;;6.10;;
6424;SDS011;12193;42.642;23.384;2023-03-31T07:37:06;12.50;;;5.40;;
6424;SDS011;12193;42.642;23.384;2023-03-31T07:39:35;10.37;;;5.20;;
6424;SDS011;12193;42.642;23.384;2023-03-31T07:42:05;12.07;;;5.80;;
6424;SDS011;12193;42.642;23.384;2023-03-31T07:44:34;12.23;;;5.47;;
6424;SDS011;12193;42.642;23.384;2023-03-31T07:47:05;12.13;;;5.83;;
6424;SDS011;12193;42.642;23.384;2023-03-31T07:49:37;13.30;;;5.80;;
6424;SDS011;12193;42.642;23.384;2023-03-31T07:52:06;12.37;;;6.20;;
6424;SDS011;12193;42.642;23.384;2023-03-31T07:54:36;13.53;;;5.80;;
6424;SDS011;12193;42.642;23.384;2023-03-31T07:57:05;11.07;;;6.00;;
6424;SDS011;12193;42.642;23.384;2023-03-31T07:59:35;10.77;;;6.00;;
6424;SDS011;12193;42.642;23.384;2023-03-31T08:02:04;11.87;;;6.10;;
6424;SDS011;12193;42.642;23.384;2023-03-31T08:04:33;10.77;;;6.43;;
6424;SDS011;12193;42.642;23.384;2023-03-31T08:07:06;7.87;;;5.07;;
6424;SDS011;12193;42.642;23.384;2023-03-31T08:09:36;11.27;;;5.40;;
6424;SDS011;12193;42.642;23.384;2023-03-31T08:12:06;9.87;;;5.27;;
6424;SDS011;12193;42.642;23.384;2023-03-31T08:14:35;14.73;;;4.83;;
6424;SDS011;12193;42.642;23.384;2023-03-31T08:17:05;8.93;;;4.13;;
6424;SDS011;12193;42.642;23.384;2023-03-31T08:19:37;7.57;;;3.90;;
6424;SDS011;12193;42.642;23.384;2023-03-31T08:22:07;13.93;;;4.63;;
6424;SDS011;12193;42.642;23.384;2023-03-31T08:24:36;8.93;;;3.83;;
6424;SDS011;12193;42.642;23.384;2023-03-31T08:27:05;9.37;;;4.10;;
6424;SDS011;12193;42.642;23.384;2023-03-31T08:29:35;7.20;;;3.80;;
6424;SDS011;12193;42.642;23.384;2023-03-31T08:32:04;7.77;;;3.30;;
6424;SDS011;12193;42.642;23.384;2023-03-31T08:34:36;10.43;;;3.70;;
6424;SDS011;12193;42.642;23.384;2023-03-31T08:37:07;6.73;;;3.53;;
6424;SDS011;12193;42.642;23.384;2023-03-31T08:39:36;6.40;;;3.30;;
6424;SDS011;12193;42.642;23.384;2023-03-31T08:42:07;7.57;;;3.30;;
6424;SDS011;12193;42.642;23.384;2023-03-31T08:44:42;6.90;;;3.47;;
6424;SDS011;12193;42.642;23.384;2023-03-31T08:47:15;11.83;;;3.50;;
6424;SDS011;12193;42.642;23.384;2023-03-31T08:49:51;11.50;;;3.97;;
6424;SDS011;12193;42.642;23.384;2023-03-31T08:52:24;7.57;;;3.00;;
6424;SDS011;12193;42.642;23.384;2023-03-31T08:54:57;8.20;;;3.10;;
6424;SDS011;12193;42.642;23.384;2023-03-31T08:57:30;9.80;;;3.17;;
6424;SDS011;12193;42.642;23.384;2023-03-31T09:00:08;6.50;;;3.17;;
6424;SDS011;12193;42.642;23.384;2023-03-31T09:02:42;7.73;;;3.10;;
6424;SDS011;12193;42.642;23.384;2023-03-31T09:05:30;6.40;;;2.67;;
6424;SDS011;12193;42.642;23.384;2023-03-31T09:08:10;9.30;;;3.17;;
6424;SDS011;12193;42.642;23.384;2023-03-31T09:10:49;8.40;;;3.13;;
6424;SDS011;12193;42.642;23.384;2023-03-31T09:13:24;4.33;;;2.40;;
6424;SDS011;12193;42.642;23.384;2023-03-31T09:16:07;6.97;;;3.30;;
6424;SDS011;12193;42.642;23.384;2023-03-31T09:18:41;9.23;;;3.30;;
6424;SDS011;12193;42.642;23.384;2023-03-31T09:21:17;12.07;;;3.03;;
6424;SDS011;12193;42.642;23.384;2023-03-31T09:23:52;6.47;;;2.90;;
6424;SDS011;12193;42.642;23.384;2023-03-31T09:26:31;4.67;;;2.57;;
6424;SDS011;12193;42.642;23.384;2023-03-31T09:29:10;5.63;;;2.57;;
6424;SDS011;12193;42.642;23.384;2023-03-31T09:31:43;6.60;;;2.60;;
6424;SDS011;12193;42.642;23.384;2023-03-31T09:34:14;8.50;;;2.73;;
6424;SDS011;12193;42.642;23.384;2023-03-31T09:36:52;6.97;;;2.77;;
6424;SDS011;12193;42.642;23.384;2023-03-31T09:39:21;7.97;;;2.80;;
6424;SDS011;12193;42.642;23.384;2023-03-31T09:41:51;6.57;;;2.73;;
6424;SDS011;12193;42.642;23.384;2023-03-31T09:44:22;4.50;;;2.33;;
6424;SDS011;12193;42.642;23.384;2023-03-31T09:46:54;6.63;;;2.63;;
6424;SDS011;12193;42.642;23.384;2023-03-31T09:49:30;8.27;;;2.57;;
6424;SDS011;12193;42.642;23.384;2023-03-31T09:52:09;12.00;;;2.87;;
6424;SDS011;12193;42.642;23.384;2023-03-31T09:54:44;8.20;;;2.90;;
6424;SDS011;12193;42.642;23.384;2023-03-31T09:57:22;6.63;;;2.60;;
6424;SDS011;12193;42.642;23.384;2023-03-31T09:59:54;5.20;;;2.30;;
6424;SDS011;12193;42.642;23.384;2023-03-31T10:02:38;5.87;;;2.50;;
6424;SDS011;12193;42.642;23.384;2023-03-31T10:08:16;7.97;;;2.80;;
6424;SDS011;12193;42.642;23.384;2023-03-31T10:10:51;9.23;;;2.90;;
6424;SDS011;12193;42.642;23.384;2023-03-31T10:13:22;4.77;;;2.27;;
6424;SDS011;12193;42.642;23.384;2023-03-31T10:15:54;5.70;;;2.53;;
6424;SDS011;12193;42.642;23.384;2023-03-31T10:18:33;5.27;;;2.33;;
6424;SDS011;12193;42.642;23.384;2023-03-31T10:21:04;6.20;;;2.27;;
6424;SDS011;12193;42.642;23.384;2023-03-31T10:23:38;5.73;;;2.77;;
6424;SDS011;12193;42.642;23.384;2023-03-31T10:26:15;5.00;;;2.20;;
6424;SDS011;12193;42.642;23.384;2023-03-31T10:28:48;5.90;;;2.50;;
6424;SDS011;12193;42.642;23.384;2023-03-31T10:31:22;6.33;;;2.80;;
6424;SDS011;12193;42.642;23.384;2023-03-31T10:33:54;5.53;;;2.77;;
6424;SDS011;12193;42.642;23.384;2023-03-31T10:36:24;7.67;;;2.93;;
6424;SDS011;12193;42.642;23.384;2023-03-31T10:38:59;5.50;;;2.97;;
6424;SDS011;12193;42.642;23.384;2023-03-31T10:41:34;4.27;;;2.67;;
6424;SDS011;12193;42.642;23.384;2023-03-31T10:44:03;7.97;;;2.43;;
6424;SDS011;12193;42.642;23.384;2023-03-31T10:46:39;6.27;;;2.27;;
6424;SDS011;12193;42.642;23.384;2023-03-31T10:49:13;4.63;;;2.57;;
6424;SDS011;12193;42.642;23.384;2023-03-31T10:51:53;4.63;;;2.60;;
6424;SDS011;12193;42.642;23.384;2023-03-31T10:54:27;7.43;;;2.80;;
6424;SDS011;12193;42.642;23.384;2023-03-31T10:56:56;5.43;;;2.80;;
6424;SDS011;12193;42.642;23.384;2023-03-31T10:59:33;4.87;;;2.63;;
6424;SDS011;12193;42.642;23.384;2023-03-31T11:02:19;7.03;;;3.07;;
6424;SDS011;12193;42.642;23.384;2023-03-31T11:05:09;4.40;;;2.27;;
6424;SDS011;12193;42.642;23.384;2023-03-31T11:07:46;8.27;;;2.43;;
6424;SDS011;12193;42.642;23.384;2023-03-31T11:10:37;6.93;;;2.40;;
6424;SDS011;12193;42.642;23.384;2023-03-31T11:13:17;3.30;;;2.23;;
6424;SDS011;12193;42.642;23.384;2023-03-31T11:15:54;6.97;;;2.50;;
6424;SDS011;12193;42.642;23.384;2023-03-31T11:18:40;7.37;;;2.50;;
6424;SDS011;12193;42.642;23.384;2023-03-31T11:21:27;7.70;;;3.70;;
6424;SDS011;12193;42.642;23.384;2023-03-31T11:24:08;5.33;;;3.00;;
6424;SDS011;12193;42.642;23.384;2023-03-31T11:26:57;6.33;;;2.80;;
6424;SDS011;12193;42.642;23.384;2023-03-31T11:29:34;7.97;;;2.70;;
6424;SDS011;12193;42.642;23.384;2023-03-31T11:32:17;6.23;;;2.70;;
6424;SDS011;12193;42.642;23.384;2023-03-31T11:35:00;5.13;;;2.80;;
6424;SDS011;12193;42.642;23.384;2023-03-31T11:37:41;6.60;;;2.70;;
6424;SDS011;12193;42.642;23.384;2023-03-31T11:40:29;4.77;;;2.70;;
6424;SDS011;12193;42.642;23.384;2023-03-31T11:43:16;10.47;;;5.37;;
6424;SDS011;12193;42.642;23.384;2023-03-31T11:45:54;7.10;;;3.43;;
6424;SDS011;12193;42.642;23.384;2023-03-31T11:48:30;6.53;;;2.90;;
6424;SDS011;12193;42.642;23.384;2023-03-31T11:51:08;7.53;;;3.77;;
6424;SDS011;12193;42.642;23.384;2023-03-31T11:53:42;4.53;;;2.60;;
6424;SDS011;12193;42.642;23.384;2023-03-31T11:56:14;7.87;;;2.77;;
6424;SDS011;12193;42.642;23.384;2023-03-31T11:58:50;3.80;;;2.10;;
6424;SDS011;12193;42.642;23.384;2023-03-31T12:01:23;7.47;;;2.43;;
6424;SDS011;12193;42.642;23.384;2023-03-31T12:03:58;6.00;;;3.00;;
6424;SDS011;12193;42.642;23.384;2023-03-31T12:06:32;14.10;;;3.07;;
6424;SDS011;12193;42.642;23.384;2023-03-31T12:09:07;7.47;;;2.80;;
6424;SDS011;12193;42.642;23.384;2023-03-31T12:11:44;7.27;;;2.80;;
6424;SDS011;12193;42.642;23.384;2023-03-31T12:14:24;4.17;;;2.47;;
6424;SDS011;12193;42.642;23.384;2023-03-31T12:16:59;11.97;;;2.90;;
6424;SDS011;12193;42.642;23.384;2023-03-31T12:19:33;6.03;;;2.70;;
6424;SDS011;12193;42.642;23.384;2023-03-31T12:22:10;7.73;;;2.73;;
6424;SDS011;12193;42.642;23.384;2023-03-31T12:24:42;3.60;;;2.43;;
6424;SDS011;12193;42.642;23.384;2023-03-31T12:27:12;6.20;;;3.00;;
6424;SDS011;12193;42.642;23.384;2023-03-31T12:29:50;6.30;;;2.60;;
6424;SDS011;12193;42.642;23.384;2023-03-31T12:32:25;6.80;;;2.60;;
6424;SDS011;12193;42.642;23.384;2023-03-31T12:34:58;9.50;;;2.60;;
6424;SDS011;12193;42.642;23.384;2023-03-31T12:40:38;4.50;;;2.50;;
6424;SDS011;12193;42.642;23.384;2023-03-31T12:43:22;5.03;;;2.30;;
6424;SDS011;12193;42.642;23.384;2023-03-31T12:46:19;5.33;;;2.70;;
6424;SDS011;12193;42.642;23.384;2023-03-31T12:49:06;9.93;;;2.60;;
6424;SDS011;12193;42.642;23.384;2023-03-31T12:51:50;6.83;;;3.00;;
6424;SDS011;12193;42.642;23.384;2023-03-31T12:54:34;7.80;;;2.40;;
6424;SDS011;12193;42.642;23.384;2023-03-31T12:57:24;6.33;;;2.63;;
6424;SDS011;12193;42.642;23.384;2023-03-31T13:00:14;9.30;;;2.33;;
6424;SDS011;12193;42.642;23.384;2023-03-31T13:05:58;6.27;;;2.43;;
6424;SDS011;12193;42.642;23.384;2023-03-31T13:11:19;5.73;;;2.20;;
6424;SDS011;12193;42.642;23.384;2023-03-31T13:13:53;6.17;;;2.70;;
6424;SDS011;12193;42.642;23.384;2023-03-31T13:16:27;3.43;;;2.33;;
6424;SDS011;12193;42.642;23.384;2023-03-31T13:18:58;7.13;;;2.40;;
6424;SDS011;12193;42.642;23.384;2023-03-31T13:21:31;7.83;;;2.40;;
6424;SDS011;12193;42.642;23.384;2023-03-31T13:24:20;6.50;;;2.50;;
6424;SDS011;12193;42.642;23.384;2023-03-31T13:26:51;7.43;;;2.80;;
6424;SDS011;12193;42.642;23.384;2023-03-31T13:29:22;8.90;;;2.60;;
6424;SDS011;12193;42.642;23.384;2023-03-31T13:34:49;6.63;;;2.70;;
6424;SDS011;12193;42.642;23.384;2023-03-31T13:40:44;9.50;;;2.80;;
6424;SDS011;12193;42.642;23.384;2023-03-31T13:43:47;4.47;;;2.13;;
6424;SDS011;12193;42.642;23.384;2023-03-31T13:49:52;5.60;;;2.43;;
6424;SDS011;12193;42.642;23.384;2023-03-31T13:52:30;8.30;;;2.43;;
6424;SDS011;12193;42.642;23.384;2023-03-31T13:55:21;4.50;;;2.67;;
6424;SDS011;12193;42.642;23.384;2023-03-31T13:58:17;4.60;;;2.30;;
6424;SDS011;12193;42.642;23.384;2023-03-31T14:01:04;5.40;;;2.60;;
6424;SDS011;12193;42.642;23.384;2023-03-31T14:03:57;5.90;;;2.57;;
6424;SDS011;12193;42.642;23.384;2023-03-31T14:06:39;6.47;;;2.83;;
6424;SDS011;12193;42.642;23.384;2023-03-31T14:09:16;7.93;;;3.17;;
6424;SDS011;12193;42.642;23.384;2023-03-31T14:11:55;3.97;;;2.30;;
6424;SDS011;12193;42.642;23.384;2023-03-31T14:14:26;8.03;;;2.47;;
6424;SDS011;12193;42.642;23.384;2023-03-31T14:16:56;7.20;;;2.70;;
6424;SDS011;12193;42.642;23.384;2023-03-31T14:19:36;7.50;;;2.87;;
6424;SDS011;12193;42.642;23.384;2023-03-31T14:22:17;7.07;;;3.07;;
6424;SDS011;12193;42.642;23.384;2023-03-31T14:24:54;8.67;;;2.83;;
6424;SDS011;12193;42.642;23.384;2023-03-31T14:27:41;8.77;;;3.23;;
6424;SDS011;12193;42.642;23.384;2023-03-31T14:30:22;6.53;;;2.50;;
6424;SDS011;12193;42.642;23.384;2023-03-31T14:33:05;9.17;;;2.80;;
6424;SDS011;12193;42.642;23.384;2023-03-31T14:35:46;5.90;;;2.60;;
6424;SDS011;12193;42.642;23.384;2023-03-31T14:38:24;7.33;;;2.30;;
6424;SDS011;12193;42.642;23.384;2023-03-31T14:40:57;4.47;;;2.50;;
6424;SDS011;12193;42.642;23.384;2023-03-31T14:43:32;5.67;;;2.30;;
6424;SDS011;12193;42.642;23.384;2023-03-31T14:46:04;12.07;;;2.63;;
6424;SDS011;12193;42.642;23.384;2023-03-31T14:48:38;11.07;;;3.40;;
6424;SDS011;12193;42.642;23.384;2023-03-31T14:51:13;7.13;;;3.07;;
6424;SDS011;12193;42.642;23.384;2023-03-31T14:53:44;5.90;;;3.43;;
6424;SDS011;12193;42.642;23.384;2023-03-31T14:56:14;9.27;;;3.70;;
6424;SDS011;12193;42.642;23.384;2023-03-31T14:58:51;6.67;;;3.17;;
6424;SDS011;12193;42.642;23.384;2023-03-31T15:01:23;5.43;;;3.33;;
6424;SDS011;12193;42.642;23.384;2023-03-31T15:03:59;7.73;;;3.30;;
6424;SDS011;12193;42.642;23.384;2023-03-31T15:06:33;7.07;;;3.20;;
6424;SDS011;12193;42.642;23.384;2023-03-31T15:09:05;8.87;;;3.10;;
6424;SDS011;12193;42.642;23.384;2023-03-31T15:11:34;9.37;;;2.90;;
6424;SDS011;12193;42.642;23.384;2023-03-31T15:14:07;4.73;;;2.50;;
6424;SDS011;12193;42.642;23.384;2023-03-31T15:16:39;6.93;;;3.13;;
6424;SDS011;12193;42.642;23.384;2023-03-31T15:19:14;8.37;;;2.87;;
6424;SDS011;12193;42.642;23.384;2023-03-31T15:21:44;5.97;;;2.70;;
6424;SDS011;12193;42.642;23.384;2023-03-31T15:24:15;5.17;;;2.63;;
6424;SDS011;12193;42.642;23.384;2023-03-31T15:26:45;4.30;;;2.60;;
6424;SDS011;12193;42.642;23.384;2023-03-31T15:29:22;7.93;;;2.33;;
6424;SDS011;12193;42.642;23.384;2023-03-31T15:31:55;5.97;;;2.70;;
6424;SDS011;12193;42.642;23.384;2023-03-31T15:34:25;6.20;;;2.90;;
6424;SDS011;12193;42.642;23.384;2023-03-31T15:36:58;6.70;;;2.63;;
6424;SDS011;12193;42.642;23.384;2023-03-31T15:39:29;6.17;;;2.60;;
6424;SDS011;12193;42.642;23.384;2023-03-31T15:42:00;6.93;;;2.53;;
6424;SDS011;12193;42.642;23.384;2023-03-31T15:44:37;9.33;;;2.60;;
6424;SDS011;12193;42.642;23.384;2023-03-31T15:47:12;11.07;;;2.97;;
6424;SDS011;12193;42.642;23.384;2023-03-31T15:49:54;5.10;;;2.57;;
6424;SDS011;12193;42.642;23.384;2023-03-31T15:52:27;6.17;;;2.60;;
6424;SDS011;12193;42.642;23.384;2023-03-31T15:55:19;7.07;;;2.23;;
6424;SDS011;12193;42.642;23.384;2023-03-31T15:57:54;6.37;;;2.40;;
6424;SDS011;12193;42.642;23.384;2023-03-31T16:03:21;5.63;;;2.60;;
6424;SDS011;12193;42.642;23.384;2023-03-31T16:05:55;6.93;;;2.87;;
6424;SDS011;12193;42.642;23.384;2023-03-31T16:08:27;6.90;;;2.97;;
6424;SDS011;12193;42.642;23.384;2023-03-31T16:11:06;6.20;;;2.63;;
6424;SDS011;12193;42.642;23.384;2023-03-31T16:13:38;8.97;;;2.80;;
6424;SDS011;12193;42.642;23.384;2023-03-31T16:16:27;7.60;;;3.50;;
6424;SDS011;12193;42.642;23.384;2023-03-31T16:18:59;6.50;;;3.07;;
6424;SDS011;12193;42.642;23.384;2023-03-31T16:21:33;9.50;;;4.23;;
6424;SDS011;12193;42.642;23.384;2023-03-31T16:24:05;9.43;;;3.47;;
6424;SDS011;12193;42.642;23.384;2023-03-31T16:26:35;4.63;;;2.90;;
6424;SDS011;12193;42.642;23.384;2023-03-31T16:29:05;7.37;;;2.70;;
6424;SDS011;12193;42.642;23.384;2023-03-31T16:31:38;11.00;;;3.30;;
6424;SDS011;12193;42.642;23.384;2023-03-31T16:34:09;7.20;;;3.50;;
6424;SDS011;12193;42.642;23.384;2023-03-31T16:36:39;7.37;;;3.10;;
6424;SDS011;12193;42.642;23.384;2023-03-31T16:39:08;7.90;;;2.87;;
6424;SDS011;12193;42.642;23.384;2023-03-31T16:41:38;12.30;;;3.57;;
6424;SDS011;12193;42.642;23.384;2023-03-31T16:44:07;8.33;;;3.30;;
6424;SDS011;12193;42.642;23.384;2023-03-31T16:46:39;5.30;;;2.97;;
6424;SDS011;12193;42.642;23.384;2023-03-31T16:49:08;5.60;;;2.70;;
6424;SDS011;12193;42.642;23.384;2023-03-31T16:51:37;9.60;;;3.00;;
6424;SDS011;12193;42.642;23.384;2023-03-31T16:54:07;6.57;;;3.20;;
6424;SDS011;12193;42.642;23.384;2023-03-31T16:56:36;8.67;;;3.30;;
6424;SDS011;12193;42.642;23.384;2023-03-31T16:59:05;9.77;;;3.83;;
6424;SDS011;12193;42.642;23.384;2023-03-31T17:01:35;15.33;;;4.93;;
6424;SDS011;12193;42.642;23.384;2023-03-31T17:04:07;8.40;;;3.90;;
6424;SDS011;12193;42.642;23.384;2023-03-31T17:06:37;10.70;;;4.90;;
6424;SDS011;12193;42.642;23.384;2023-03-31T17:09:07;11.17;;;5.10;;
6424;SDS011;12193;42.642;23.384;2023-03-31T17:11:36;14.10;;;5.03;;
6424;SDS011;12193;42.642;23.384;2023-03-31T17:14:06;11.77;;;4.87;;
6424;SDS011;12193;42.642;23.384;2023-03-31T17:16:36;8.50;;;3.60;;
6424;SDS011;12193;42.642;23.384;2023-03-31T17:19:08;10.83;;;4.07;;
6424;SDS011;12193;42.642;23.384;2023-03-31T17:21:38;8.23;;;3.83;;
6424;SDS011;12193;42.642;23.384;2023-03-31T17:24:08;13.47;;;4.80;;
6424;SDS011;12193;42.642;23.384;2023-03-31T17:26:37;9.67;;;4.37;;
6424;SDS011;12193;42.642;23.384;2023-03-31T17:29:07;8.10;;;4.20;;
6424;SDS011;12193;42.642;23.384;2023-03-31T17:31:36;11.20;;;4.47;;
6424;SDS011;12193;42.642;23.384;2023-03-31T17:34:08;8.73;;;4.20;;
6424;SDS011;12193;42.642;23.384;2023-03-31T17:36:38;11.40;;;4.43;;
6424;SDS011;12193;42.642;23.384;2023-03-31T17:39:09;10.87;;;4.40;;
6424;SDS011;12193;42.642;23.384;2023-03-31T17:41:38;8.87;;;4.40;;
6424;SDS011;12193;42.642;23.384;2023-03-31T17:44:07;11.00;;;4.77;;
6424;SDS011;12193;42.642;23.384;2023-03-31T17:46:37;11.50;;;5.00;;
6424;SDS011;12193;42.642;23.384;2023-03-31T17:49:09;11.57;;;4.30;;
6424;SDS011;12193;42.642;23.384;2023-03-31T17:51:39;13.63;;;5.40;;
6424;SDS011;12193;42.642;23.384;2023-03-31T17:54:09;16.43;;;4.57;;
6424;SDS011;12193;42.642;23.384;2023-03-31T17:56:38;11.20;;;6.53;;
6424;SDS011;12193;42.642;23.384;2023-03-31T17:59:10;9.07;;;5.50;;
6424;SDS011;12193;42.642;23.384;2023-03-31T18:01:39;11.13;;;5.13;;
6424;SDS011;12193;42.642;23.384;2023-03-31T18:04:11;11.03;;;5.50;;
6424;SDS011;12193;42.642;23.384;2023-03-31T18:06:41;9.83;;;4.13;;
6424;SDS011;12193;42.642;23.384;2023-03-31T18:09:13;15.43;;;5.80;;
6424;SDS011;12193;42.642;23.384;2023-03-31T18:11:43;11.50;;;5.17;;
6424;SDS011;12193;42.642;23.384;2023-03-31T18:14:13;11.97;;;5.50;;
6424;SDS011;12193;42.642;23.384;2023-03-31T18:16:43;9.60;;;4.70;;
6424;SDS011;12193;42.642;23.384;2023-03-31T18:19:15;10.93;;;4.13;;
6424;SDS011;12193;42.642;23.384;2023-03-31T18:21:45;8.87;;;3.60;;
6424;SDS011;12193;42.642;23.384;2023-03-31T18:24:14;9.53;;;4.73;;
6424;SDS011;12193;42.642;23.384;2023-03-31T18:26:45;8.83;;;3.73;;
6424;SDS011;12193;42.642;23.384;2023-03-31T18:29:14;11.10;;;4.30;;
6424;SDS011;12193;42.642;23.384;2023-03-31T18:31:44;12.20;;;5.70;;
6424;SDS011;12193;42.642;23.384;2023-03-31T18:34:16;10.13;;;5.07;;
6424;SDS011;12193;42.642;23.384;2023-03-31T18:36:45;10.60;;;4.30;;
6424;SDS011;12193;42.642;23.384;2023-03-31T18:39:15;9.03;;;4.87;;
6424;SDS011;12193;42.642;23.384;2023-03-31T18:41:45;8.20;;;4.63;;
6424;SDS011;12193;42.642;23.384;2023-03-31T18:44:16;7.63;;;4.70;;
6424;SDS011;12193;42.642;23.384;2023-03-31T18:46:46;6.13;;;3.40;;